Time;durP1;ratioP1;P1;durP2;ratioP2;P2;SDS_P1;SDS_P2;PMS_P1;PMS_P2;Temp;Humidity;BMP_temperature;BMP_pressure;BME280_temperature;BME280_humidity;BME280_pressure;Samples;Min_cycle;Max_cycle;Signal;HPM_P1;HPM_P2
2024/01/31 00:00:08;;;;;;;;;;;;;;;;;;5048593;28;20372;-45
2024/01/31 00:02:34;;;;;;;;;;;;;;;;;;5048706;28;19975;-44
2024/01/31 00:04:59;;;;;;;;;;;;;;;;;;5048182;28;19947;-44
2024/01/31 00:07:25;;;;;;;;;;;;;;;;;;5048417;28;19967;-46
2024/01/31 00:09:50;;;;;;;;;;;;;;;;;;5047941;28;20375;-44
2024/01/31 00:12:16;;;;;;;;;;;;;;;;;;5049432;28;19928;-46
2024/01/31 00:14:41;;;;;;;;;;;;;;;;;;5049280;28;20031;-45
2024/01/31 00:17:07;;;;;;;;;;;;;;;;;;5047869;28;20066;-46
2024/01/31 00:19:32;;;;;;;;;;;;;;;;;;5049214;28;19939;-46
2024/01/31 00:21:58;;;;;;;;;;;;;;;;;;5049807;28;20019;-45
2024/01/31 00:24:24;;;;;;;;;;;;;;;;;;5048313;28;19925;-45
2024/01/31 00:26:49;;;;;;;;;;;;;;;;;;5048962;28;20364;-44
2024/01/31 00:29:15;;;;;;;;;;;;;;;;;;5049141;28;19924;-46
2024/01/31 00:31:40;;;;;;;;;;;;;;;;;;5048492;28;20029;-46
2024/01/31 00:34:06;;;;;;;;;;;;;;;;;;5048705;28;20380;-45
2024/01/31 00:36:32;;;;;;;;;;;;;;;;;;5048060;28;19928;-45
2024/01/31 00:38:59;;;;;;;;;;;;;;;;;;5048473;28;19986;-44
2024/01/31 00:41:24;;;;;;;;;;;;;;;;;;5049053;28;20392;-44
2024/01/31 00:43:50;;;;;;;;;;;;;;;;;;5051302;28;20008;-46
2024/01/31 00:46:16;;;;;;;;;;;;;;;;;;5049117;28;20024;-44
2024/01/31 00:48:43;;;;;;;;;;;;;;;;;;5048493;28;19928;-45
2024/01/31 00:51:08;;;;;;;;;;;;;;;;;;5048947;28;19929;-44
2024/01/31 00:53:34;;;;;;;;;;;;;;;;;;5049073;28;19972;-45
2024/01/31 00:55:59;;;;;;;;;;;;;;;;;;5048012;28;20004;-45
2024/01/31 00:58:25;;;;;;;;;;;;;;;;;;5051401;28;19939;-45
2024/01/31 01:00:50;;;;;;;;;;;;;;;;;;5048740;28;20011;-45
2024/01/31 01:03:15;;;;;;;;;;;;;;;;;;5048612;28;19956;-46
2024/01/31 01:05:41;;;;;;;;;;;;;;;;;;5047674;28;20402;-46
2024/01/31 01:08:06;;;;;;;;;;;;;;;;;;5048064;28;20004;-46
2024/01/31 01:10:32;;;;;;;;;;;;;;;;;;5047900;28;19931;-46
2024/01/31 01:12:59;;;;;;;;;;;;;;;;;;5048334;28;19991;-47
2024/01/31 01:15:24;;;;;;;;;;;;;;;;;;5047602;28;19936;-45
2024/01/31 01:17:49;;;;;;;;;;;;;;;;;;5048078;28;19925;-44
2024/01/31 01:20:15;;;;;;;;;;;;;;;;;;5048327;28;19925;-45
2024/01/31 01:22:42;;;;;;;;;;;;;;;;;;5050070;28;20023;-45
2024/01/31 01:25:08;;;;;;;;;;;;;;;;;;5047664;28;19925;-44
2024/01/31 01:27:34;;;;;;;;;;;;;;;;;;5048279;28;19932;-44
2024/01/31 01:30:00;;;;;;;;;;;;;;;;;;5048095;28;20959;-45
2024/01/31 01:32:25;;;;;;;;;;;;;;;;;;5047746;28;19963;-46
2024/01/31 01:34:51;;;;;;;;;;;;;;;;;;5047722;28;19931;-46
2024/01/31 01:37:16;;;;;;;;;;;;;;;;;;5046702;28;20412;-46
2024/01/31 01:39:43;;;;;;;;;;;;;;;;;;5047273;28;19948;-46
2024/01/31 01:42:08;;;;;;;;;;;;;;;;;;5048081;28;19968;-44
2024/01/31 01:44:34;;;;;;;;;;;;;;;;;;5050866;28;20024;-47
2024/01/31 01:46:59;;;;;;;;;;;;;;;;;;5047378;28;19925;-47
2024/01/31 01:49:25;;;;;;;;;;;;;;;;;;5048218;28;20015;-45
2024/01/31 01:51:50;;;;;;;;;;;;;;;;;;5047748;28;20075;-47
2024/01/31 01:54:16;;;;;;;;;;;;;;;;;;5046820;28;19929;-46
2024/01/31 01:56:41;;;;;;;;;;;;;;;;;;5047166;28;19929;-45
2024/01/31 01:59:07;;;;;;;;;;;;;;;;;;5047589;28;19960;-44
2024/01/31 02:01:32;;;;;;;;;;;;;;;;;;5049183;28;20035;-45
2024/01/31 02:03:58;;;;;;;;;;;;;;;;;;5046840;28;19925;-44
2024/01/31 02:06:24;;;;;;;;;;;;;;;;;;5046937;28;19932;-47
2024/01/31 02:08:49;;;;;;;;;;;;;;;;;;5046955;28;19964;-46
2024/01/31 02:11:15;;;;;;;;;;;;;;;;;;5045815;28;20277;-45
2024/01/31 02:13:40;;;;;;;;;;;;;;;;;;5046747;28;20015;-48
2024/01/31 02:16:06;;;;;;;;;;;;;;;;;;5046764;28;20036;-46
2024/01/31 02:18:31;;;;;;;;;;;;;;;;;;5047209;28;19932;-44
2024/01/31 02:20:57;;;;;;;;;;;;;;;;;;5048154;28;19925;-46
2024/01/31 02:23:22;;;;;;;;;;;;;;;;;;5050299;28;19991;-46
2024/01/31 02:25:48;;;;;;;;;;;;;;;;;;5048152;28;19964;-45
2024/01/31 02:28:13;;;;;;;;;;;;;;;;;;5047558;28;20379;-45
2024/01/31 02:30:38;;;;;;;;;;;;;;;;;;5047733;28;20005;-45
2024/01/31 02:33:04;;;;;;;;;;;;;;;;;;5046128;28;19975;-46
2024/01/31 02:35:29;;;;;;;;;;;;;;;;;;5046546;28;20423;-45
2024/01/31 02:37:57;;;;;;;;;;;;;;;;;;5045692;28;20074;-45
2024/01/31 02:40:23;;;;;;;;;;;;;;;;;;5047412;28;19970;-46
2024/01/31 02:42:48;;;;;;;;;;;;;;;;;;5047289;28;19960;-44
2024/01/31 02:45:14;;;;;;;;;;;;;;;;;;5048474;28;20028;-49
2024/01/31 02:47:39;;;;;;;;;;;;;;;;;;5047574;28;19925;-46
2024/01/31 02:50:05;;;;;;;;;;;;;;;;;;5047626;28;19972;-45
2024/01/31 02:52:30;;;;;;;;;;;;;;;;;;5047244;28;19933;-45
2024/01/31 02:54:58;;;;;;;;;;;;;;;;;;5046342;28;20090;-46
2024/01/31 02:57:23;;;;;;;;;;;;;;;;;;5046601;28;19925;-44
2024/01/31 02:59:49;;;;;;;;;;;;;;;;;;5047069;28;20020;-45
2024/01/31 03:02:14;;;;;;;;;;;;;;;;;;5049029;28;20164;-47
2024/01/31 03:04:40;;;;;;;;;;;;;;;;;;5046199;28;21303;-44
2024/01/31 03:07:05;;;;;;;;;;;;;;;;;;5046205;28;19924;-45
2024/01/31 03:09:31;;;;;;;;;;;;;;;;;;5047429;28;19947;-47
2024/01/31 03:11:56;;;;;;;;;;;;;;;;;;5046887;28;19931;-45
2024/01/31 03:14:22;;;;;;;;;;;;;;;;;;5046764;28;19979;-44
2024/01/31 03:16:47;;;;;;;;;;;;;;;;;;5046445;28;19932;-45
2024/01/31 03:19:13;;;;;;;;;;;;;;;;;;5046878;28;19928;-44
2024/01/31 03:21:38;;;;;;;;;;;;;;;;;;5047754;28;19925;-44
2024/01/31 03:24:04;;;;;;;;;;;;;;;;;;5049572;28;19960;-44
2024/01/31 03:26:29;;;;;;;;;;;;;;;;;;5052360;28;19932;-47
2024/01/31 03:28:55;;;;;;;;;;;;;;;;;;5050129;28;19937;-47
2024/01/31 03:31:20;;;;;;;;;;;;;;;;;;5049791;28;20328;-46
2024/01/31 03:33:46;;;;;;;;;;;;;;;;;;5050921;28;19972;-46
2024/01/31 03:36:11;;;;;;;;;;;;;;;;;;5049437;28;19956;-45
2024/01/31 03:38:37;;;;;;;;;;;;;;;;;;5049513;28;20011;-44
2024/01/31 03:41:02;;;;;;;;;;;;;;;;;;5050164;28;19931;-45
2024/01/31 03:43:28;;;;;;;;;;;;;;;;;;5049911;28;19925;-46
2024/01/31 03:45:53;;;;;;;;;;;;;;;;;;5049795;28;19971;-44
2024/01/31 03:48:19;;;;;;;;;;;;;;;;;;5050507;28;19932;-46
2024/01/31 03:50:44;;;;;;;;;;;;;;;;;;5050390;28;20055;-44
2024/01/31 03:53:10;;;;;;;;;;;;;;;;;;5049819;28;20396;-46
2024/01/31 03:55:36;;;;;;;;;;;;;;;;;;5048920;28;20542;-45
2024/01/31 03:58:03;;;;;;;;;;;;;;;;;;5049533;28;20015;-45
2024/01/31 04:00:29;;;;;;;;;;;;;;;;;;5049425;28;19925;-46
2024/01/31 04:02:54;;;;;;;;;;;;;;;;;;5050454;28;19939;-45
2024/01/31 04:05:20;;;;;;;;;;;;;;;;;;5052195;28;19925;-46
2024/01/31 04:07:45;;;;;;;;;;;;;;;;;;5049048;28;20608;-44
2024/01/31 04:10:12;;;;;;;;;;;;;;;;;;5050109;28;19928;-44
2024/01/31 04:12:37;;;;;;;;;;;;;;;;;;5049901;28;20012;-45
2024/01/31 04:15:03;;;;;;;;;;;;;;;;;;5048388;28;20019;-46
2024/01/31 04:17:28;;;;;;;;;;;;;;;;;;5049007;28;20027;-46
2024/01/31 04:19:54;;;;;;;;;;;;;;;;;;5049782;28;20360;-46
2024/01/31 04:22:19;;;;;;;;;;;;;;;;;;5049555;28;20015;-45
2024/01/31 04:24:45;;;;;;;;;;;;;;;;;;5050215;28;20378;-46
2024/01/31 04:27:10;;;;;;;;;;;;;;;;;;5053485;28;19928;-44
2024/01/31 04:29:36;;;;;;;;;;;;;;;;;;5050813;28;20240;-45
2024/01/31 04:32:01;;;;;;;;;;;;;;;;;;5049251;28;19976;-46
2024/01/31 04:34:27;;;;;;;;;;;;;;;;;;5047376;28;20020;-46
2024/01/31 04:36:53;;;;;;;;;;;;;;;;;;5048659;28;19987;-45
2024/01/31 04:39:18;;;;;;;;;;;;;;;;;;5049439;28;19933;-45
2024/01/31 04:41:43;;;;;;;;;;;;;;;;;;5049468;28;20019;-44
2024/01/31 04:44:09;;;;;;;;;;;;;;;;;;5048650;28;20035;-45
2024/01/31 04:46:36;;;;;;;;;;;;;;;;;;5048345;28;19925;-44
2024/01/31 04:49:01;;;;;;;;;;;;;;;;;;5049241;28;19932;-48
2024/01/31 04:51:27;;;;;;;;;;;;;;;;;;5048915;28;19925;-44
2024/01/31 04:53:53;;;;;;;;;;;;;;;;;;5047952;28;19936;-47
2024/01/31 04:56:18;;;;;;;;;;;;;;;;;;5048110;28;20349;-44
2024/01/31 04:58:44;;;;;;;;;;;;;;;;;;5048575;28;19932;-44
2024/01/31 05:01:09;;;;;;;;;;;;;;;;;;5047937;28;19976;-45
2024/01/31 05:03:35;;;;;;;;;;;;;;;;;;5047623;28;20556;-44
2024/01/31 05:06:00;;;;;;;;;;;;;;;;;;5053928;28;19925;-45
2024/01/31 05:08:26;;;;;;;;;;;;;;;;;;5048746;28;19929;-44
2024/01/31 05:10:51;;;;;;;;;;;;;;;;;;5048902;28;19976;-45
2024/01/31 05:13:17;;;;;;;;;;;;;;;;;;5048283;28;20244;-44
2024/01/31 05:15:42;;;;;;;;;;;;;;;;;;5047402;28;19956;-46
2024/01/31 05:18:08;;;;;;;;;;;;;;;;;;5048310;28;20011;-44
2024/01/31 05:20:33;;;;;;;;;;;;;;;;;;5048352;28;19924;-48
2024/01/31 05:22:59;;;;;;;;;;;;;;;;;;5048267;28;19924;-46
2024/01/31 05:25:24;;;;;;;;;;;;;;;;;;5046967;28;20027;-46
2024/01/31 05:27:50;;;;;;;;;;;;;;;;;;5047540;28;20293;-45
2024/01/31 05:30:15;;;;;;;;;;;;;;;;;;5055172;28;19983;-44
2024/01/31 05:32:41;;;;;;;;;;;;;;;;;;5053304;28;20343;-45
2024/01/31 05:35:07;;;;;;;;;;;;;;;;;;5051820;28;20468;-46
2024/01/31 05:37:33;;;;;;;;;;;;;;;;;;5049624;28;19929;-44
2024/01/31 05:39:58;;;;;;;;;;;;;;;;;;5048496;28;19939;-44
2024/01/31 05:42:24;;;;;;;;;;;;;;;;;;5048413;28;19932;-45
2024/01/31 05:44:51;;;;;;;;;;;;;;;;;;5049261;28;19928;-45
2024/01/31 05:47:16;;;;;;;;;;;;;;;;;;5047832;28;19994;-47
2024/01/31 05:49:43;;;;;;;;;;;;;;;;;;5048455;28;20023;-44
2024/01/31 05:52:09;;;;;;;;;;;;;;;;;;5048501;28;20351;-46
2024/01/31 05:54:34;;;;;;;;;;;;;;;;;;5046838;28;20443;-44
2024/01/31 05:57:00;;;;;;;;;;;;;;;;;;5050797;28;20034;-46
2024/01/31 05:59:25;;;;;;;;;;;;;;;;;;5051209;28;19960;-45
2024/01/31 06:01:51;;;;;;;;;;;;;;;;;;5046883;28;19983;-44
2024/01/31 06:04:17;;;;;;;;;;;;;;;;;;5049831;28;19968;-47
2024/01/31 06:06:42;;;;;;;;;;;;;;;;;;5047046;28;19936;-46
2024/01/31 06:09:08;;;;;;;;;;;;;;;;;;5048363;28;20384;-45
2024/01/31 06:11:33;;;;;;;;;;;;;;;;;;5047116;28;20326;-46
2024/01/31 06:13:59;;;;;;;;;;;;;;;;;;5046995;28;19974;-46
2024/01/31 06:16:24;;;;;;;;;;;;;;;;;;5046761;28;19925;-45
2024/01/31 06:18:50;;;;;;;;;;;;;;;;;;5048917;28;19925;-48
2024/01/31 06:21:15;;;;;;;;;;;;;;;;;;5048717;28;20158;-44
2024/01/31 06:23:41;;;;;;;;;;;;;;;;;;5055423;28;20356;-45
2024/01/31 06:26:06;;;;;;;;;;;;;;;;;;5049671;28;20071;-45
2024/01/31 06:28:33;;;;;;;;;;;;;;;;;;5050295;28;20027;-46
2024/01/31 06:30:59;;;;;;;;;;;;;;;;;;5051798;28;20024;-45
2024/01/31 06:33:29;;;;;;;;;;;;;;;;;;5047699;28;19924;-44
2024/01/31 06:35:55;;;;;;;;;;;;;;;;;;5045941;28;20561;-44
2024/01/31 06:38:20;;;;;;;;;;;;;;;;;;5047308;28;20015;-44
2024/01/31 06:40:46;;;;;;;;;;;;;;;;;;5050809;28;20059;-44
2024/01/31 06:43:11;;;;;;;;;;;;;;;;;;5052184;28;19936;-47
2024/01/31 06:45:38;;;;;;;;;;;;;;;;;;5048488;28;19960;-46
2024/01/31 06:48:04;;;;;;;;;;;;;;;;;;5049040;28;19960;-47
2024/01/31 06:50:29;;;;;;;;;;;;;;;;;;5049279;28;20032;-44
2024/01/31 06:52:54;;;;;;;;;;;;;;;;;;5052962;28;19956;-45
2024/01/31 06:55:20;;;;;;;;;;;;;;;;;;5045146;28;19964;-46
2024/01/31 06:57:45;;;;;;;;;;;;;;;;;;5047672;28;20420;-45
2024/01/31 07:00:11;;;;;;;;;;;;;;;;;;5050446;28;19933;-44
2024/01/31 07:02:36;;;;;;;;;;;;;;;;;;5052921;28;19925;-46
2024/01/31 07:05:02;;;;;;;;;;;;;;;;;;5050614;28;19925;-46
2024/01/31 07:07:27;;;;;;;;;;;;;;;;;;5053425;28;19978;-47
2024/01/31 07:09:53;;;;;;;;;;;;;;;;;;5050295;28;20542;-46
2024/01/31 07:12:19;;;;;;;;;;;;;;;;;;5049601;28;19980;-46
2024/01/31 07:14:44;;;;;;;;;;;;;;;;;;5054151;28;20378;-44
2024/01/31 07:17:10;;;;;;;;;;;;;;;;;;5050488;28;19940;-44
2024/01/31 07:19:35;;;;;;;;;;;;;;;;;;5051718;28;19978;-44
2024/01/31 07:22:01;;;;;;;;;;;;;;;;;;5061787;28;20035;-44
2024/01/31 07:24:27;;;;;;;;;;;;;;;;;;5061236;28;19964;-45
2024/01/31 07:26:55;;;;;;;;;;;;;;;;;;5059686;28;19977;-44
2024/01/31 07:29:20;;;;;;;;;;;;;;;;;;5061103;28;19937;-43
2024/01/31 07:31:45;;;;;;;;;;;;;;;;;;5060921;28;20011;-45
2024/01/31 07:34:11;;;;;;;;;;;;;;;;;;5059822;28;19951;-44
2024/01/31 07:36:36;;;;;;;;;;;;;;;;;;5059777;28;20026;-44
2024/01/31 07:39:03;;;;;;;;;;;;;;;;;;5065285;28;19934;-46
2024/01/31 07:41:30;;;;;;;;;;;;;;;;;;5062320;28;20369;-44
2024/01/31 07:43:56;;;;;;;;;;;;;;;;;;5062210;28;20364;-58
2024/01/31 07:46:21;;;;;;;;;;;;;;;;;;5059332;28;19967;-58
2024/01/31 07:48:47;;;;;;;;;;;;;;;;;;5058956;28;19933;-58
2024/01/31 07:57:24;;;;;;;;;;;;;;;;;;5053925;28;20357;-59
2024/01/31 07:59:50;;;;;;;;;;;;;;;;;;5053897;28;20431;-57
2024/01/31 08:02:15;;;;;;;;;;;;;;;;;;5055522;28;19933;-60
2024/01/31 08:04:41;;;;;;;;;;;;;;;;;;5047310;28;20044;-59
2024/01/31 08:07:06;;;;;;;;;;;;;;;;;;5040158;28;20283;-58
2024/01/31 08:09:32;;;;;;;;;;;;;;;;;;5043763;28;19989;-58
2024/01/31 08:11:57;;;;;;;;;;;;;;;;;;5045022;28;20594;-59
2024/01/31 08:14:23;;;;;;;;;;;;;;;;;;5043585;28;19936;-60
2024/01/31 08:16:51;;;;;;;;;;;;;;;;;;5042581;28;19964;-60
2024/01/31 08:19:17;;;;;;;;;;;;;;;;;;5041385;28;20346;-58
2024/01/31 08:21:42;;;;;;;;;;;;;;;;;;5038645;28;20454;-57
2024/01/31 08:24:08;;;;;;;;;;;;;;;;;;5046272;28;20063;-58
2024/01/31 08:26:33;;;;;;;;;;;;;;;;;;5042724;28;21015;-58
2024/01/31 08:28:59;;;;;;;;;;;;;;;;;;5045090;28;19933;-58
2024/01/31 08:31:35;;;;;;;;;;;;;;;;;;5044184;28;19935;-59
2024/01/31 08:34:01;;;;;;;;;;;;;;;;;;5042486;28;19932;-58
2024/01/31 08:36:26;;;;;;;;;;;;;;;;;;5049363;28;20541;-58
2024/01/31 08:38:52;;;;;;;;;;;;;;;;;;5049190;28;20023;-58
2024/01/31 08:41:19;;;;;;;;;;;;;;;;;;5047907;28;20027;-58
2024/01/31 08:43:45;;;;;;;;;;;;;;;;;;5053423;28;20631;-56
2024/01/31 08:46:11;;;;;;;;;;;;;;;;;;5050675;28;19939;-58
2024/01/31 08:48:38;;;;;;;;;;;;;;;;;;5050096;28;19980;-58
2024/01/31 08:51:05;;;;;;;;;;;;;;;;;;5048156;28;19940;-57
2024/01/31 08:53:31;;;;;;;;;;;;;;;;;;5047786;28;20051;-58
2024/01/31 08:55:56;;;;;;;;;;;;;;;;;;5044501;28;19972;-59
2024/01/31 08:58:30;;;;;;;;;;;;;;;;;;5044668;28;19949;-59
2024/01/31 09:00:55;;;;;;;;;;;;;;;;;;5049199;28;19932;-60
2024/01/31 09:03:21;;;;;;;;;;;;;;;;;;5047749;28;19932;-59
2024/01/31 09:05:46;;;;;;;;;;;;;;;;;;5046092;28;20027;-59
2024/01/31 09:08:13;;;;;;;;;;;;;;;;;;5049855;28;20523;-58
2024/01/31 09:10:38;;;;;;;;;;;;;;;;;;5053938;28;20015;-58
2024/01/31 09:13:04;;;;;;;;;;;;;;;;;;5047378;28;20462;-60
2024/01/31 09:15:29;;;;;;;;;;;;;;;;;;5053681;28;19925;-59
2024/01/31 09:17:55;;;;;;;;;;;;;;;;;;5051397;28;19989;-58
2024/01/31 09:20:20;;;;;;;;;;;;;;;;;;5054167;28;19924;-58
2024/01/31 09:22:46;;;;;;;;;;;;;;;;;;5052520;28;20020;-58
2024/01/31 09:25:14;;;;;;;;;;;;;;;;;;5051718;28;19939;-58
2024/01/31 09:27:40;;;;;;;;;;;;;;;;;;5049357;28;19941;-59
2024/01/31 09:30:05;;;;;;;;;;;;;;;;;;5052363;28;19925;-58
2024/01/31 09:32:31;;;;;;;;;;;;;;;;;;5054256;28;19924;-58
2024/01/31 09:34:56;;;;;;;;;;;;;;;;;;5049738;28;19924;-59
2024/01/31 09:37:22;;;;;;;;;;;;;;;;;;5055726;28;19924;-58
2024/01/31 09:39:48;;;;;;;;;;;;;;;;;;5052318;28;20019;-59
2024/01/31 09:42:14;;;;;;;;;;;;;;;;;;5050575;28;20380;-59
2024/01/31 09:44:41;;;;;;;;;;;;;;;;;;5057383;28;20455;-59
2024/01/31 09:47:06;;;;;;;;;;;;;;;;;;5049821;28;20672;-59
2024/01/31 09:49:32;;;;;;;;;;;;;;;;;;5054888;28;20050;-58
2024/01/31 09:51:58;;;;;;;;;;;;;;;;;;5054163;28;19989;-58
2024/01/31 09:54:24;;;;;;;;;;;;;;;;;;5046728;28;20689;-59
2024/01/31 09:56:49;;;;;;;;;;;;;;;;;;5047429;28;20055;-60
2024/01/31 09:59:15;;;;;;;;;;;;;;;;;;5050453;28;20019;-59
2024/01/31 10:01:40;;;;;;;;;;;;;;;;;;5052344;28;19933;-59
2024/01/31 10:04:06;;;;;;;;;;;;;;;;;;5049270;28;19931;-59
2024/01/31 10:06:32;;;;;;;;;;;;;;;;;;5051014;28;19985;-59
2024/01/31 10:08:57;;;;;;;;;;;;;;;;;;5057067;28;19924;-58
2024/01/31 10:11:23;;;;;;;;;;;;;;;;;;5053621;28;19936;-58
2024/01/31 10:13:48;;;;;;;;;;;;;;;;;;5055470;28;20015;-59
2024/01/31 10:16:14;;;;;;;;;;;;;;;;;;5051943;28;20015;-59
2024/01/31 10:18:40;;;;;;;;;;;;;;;;;;5053645;28;19928;-59
2024/01/31 10:21:05;;;;;;;;;;;;;;;;;;5055438;28;20396;-57
2024/01/31 10:23:31;;;;;;;;;;;;;;;;;;5056142;28;20020;-58
2024/01/31 10:25:56;;;;;;;;;;;;;;;;;;5054511;28;20043;-58
2024/01/31 10:28:22;;;;;;;;;;;;;;;;;;5043127;28;20227;-58
2024/01/31 10:30:47;;;;;;;;;;;;;;;;;;5046158;28;19929;-60
2024/01/31 10:33:13;;;;;;;;;;;;;;;;;;5053874;28;19957;-58
2024/01/31 10:35:38;;;;;;;;;;;;;;;;;;5052046;28;20180;-58
2024/01/31 10:38:24;;;;;;;;;;;;;;;;;;5041391;28;20429;-58
2024/01/31 10:40:50;;;;;;;;;;;;;;;;;;5053666;28;20015;-59
2024/01/31 10:43:16;;;;;;;;;;;;;;;;;;5050314;28;20007;-59
2024/01/31 10:45:41;;;;;;;;;;;;;;;;;;5046509;28;19974;-59
2024/01/31 10:48:07;;;;;;;;;;;;;;;;;;5054272;28;19931;-57
2024/01/31 10:50:33;;;;;;;;;;;;;;;;;;5047429;28;19924;-58
2024/01/31 10:52:59;;;;;;;;;;;;;;;;;;5055671;28;20124;-58
2024/01/31 10:55:25;;;;;;;;;;;;;;;;;;5047261;28;19998;-58
2024/01/31 10:57:50;;;;;;;;;;;;;;;;;;5053329;28;20334;-59
2024/01/31 11:00:16;;;;;;;;;;;;;;;;;;5050058;28;19925;-61
2024/01/31 11:02:41;;;;;;;;;;;;;;;;;;5052049;28;20023;-58
2024/01/31 11:05:07;;;;;;;;;;;;;;;;;;5053180;28;19998;-59
2024/01/31 11:07:34;;;;;;;;;;;;;;;;;;5052530;28;20368;-58
2024/01/31 11:09:59;;;;;;;;;;;;;;;;;;5047876;28;19964;-59
2024/01/31 11:12:24;;;;;;;;;;;;;;;;;;5053529;28;19939;-59
2024/01/31 11:14:50;;;;;;;;;;;;;;;;;;5053176;28;19924;-59
2024/01/31 11:17:16;;;;;;;;;;;;;;;;;;5054088;28;19932;-57
2024/01/31 11:19:41;;;;;;;;;;;;;;;;;;5050428;28;19990;-57
2024/01/31 11:22:07;;;;;;;;;;;;;;;;;;5047859;28;20340;-58
2024/01/31 11:24:33;;;;;;;;;;;;;;;;;;5052269;28;19955;-58
2024/01/31 11:26:58;;;;;;;;;;;;;;;;;;5051647;28;19933;-59
2024/01/31 11:29:24;;;;;;;;;;;;;;;;;;5053910;28;19960;-58
2024/01/31 11:31:49;;;;;;;;;;;;;;;;;;5050040;28;20062;-58
2024/01/31 11:34:15;;;;;;;;;;;;;;;;;;5053526;28;19931;-59
2024/01/31 11:36:41;;;;;;;;;;;;;;;;;;5052296;28;19943;-58
2024/01/31 11:39:07;;;;;;;;;;;;;;;;;;5050774;28;19955;-58
2024/01/31 11:41:32;;;;;;;;;;;;;;;;;;5049762;28;19931;-58
2024/01/31 11:43:58;;;;;;;;;;;;;;;;;;5051705;28;20018;-58
2024/01/31 11:46:23;;;;;;;;;;;;;;;;;;5051485;28;20039;-58
2024/01/31 11:48:49;;;;;;;;;;;;;;;;;;5052740;28;19970;-59
2024/01/31 11:51:14;;;;;;;;;;;;;;;;;;5060053;28;19931;-58
2024/01/31 11:53:40;;;;;;;;;;;;;;;;;;5058450;28;19924;-58
2024/01/31 11:56:05;;;;;;;;;;;;;;;;;;5050602;28;20102;-58
2024/01/31 11:58:30;;;;;;;;;;;;;;;;;;5051542;28;20987;-58
2024/01/31 12:00:56;;;;;;;;;;;;;;;;;;5050444;28;20442;-59
2024/01/31 12:03:21;;;;;;;;;;;;;;;;;;5053438;28;19963;-59
2024/01/31 12:05:47;;;;;;;;;;;;;;;;;;5052880;28;19940;-59
2024/01/31 12:08:12;;;;;;;;;;;;;;;;;;5054955;28;20105;-60
2024/01/31 12:10:38;;;;;;;;;;;;;;;;;;5056312;28;20415;-58
2024/01/31 12:13:04;;;;;;;;;;;;;;;;;;5056388;28;20376;-59
2024/01/31 12:15:30;;;;;;;;;;;;;;;;;;5056329;28;19924;-59
2024/01/31 12:17:56;;;;;;;;;;;;;;;;;;5061260;28;19934;-59
2024/01/31 12:20:21;;;;;;;;;;;;;;;;;;5054901;28;20031;-60
2024/01/31 12:22:47;;;;;;;;;;;;;;;;;;5048401;28;20031;-59
2024/01/31 12:25:13;;;;;;;;;;;;;;;;;;5049479;28;20994;-59
2024/01/31 12:27:38;;;;;;;;;;;;;;;;;;5048837;28;20232;-59
2024/01/31 12:30:04;;;;;;;;;;;;;;;;;;5049162;28;19954;-59
2024/01/31 12:32:29;;;;;;;;;;;;;;;;;;5047432;28;19938;-59
2024/01/31 12:34:55;;;;;;;;;;;;;;;;;;5045424;28;20066;-59
2024/01/31 12:37:20;;;;;;;;;;;;;;;;;;5048673;28;19929;-59
2024/01/31 12:39:46;;;;;;;;;;;;;;;;;;5048754;28;19932;-59
2024/01/31 12:42:11;;;;;;;;;;;;;;;;;;5047645;28;20138;-58
2024/01/31 12:44:37;;;;;;;;;;;;;;;;;;5053404;28;19928;-59
2024/01/31 12:47:05;;;;;;;;;;;;;;;;;;5053646;28;19924;-59
2024/01/31 12:49:32;;;;;;;;;;;;;;;;;;4968862;28;19930;-59
2024/01/31 12:51:57;;;;;;;;;;;;;;;;;;4968807;28;19940;-58
2024/01/31 12:54:23;;;;;;;;;;;;;;;;;;4965828;28;20028;-59
2024/01/31 12:56:48;;;;;;;;;;;;;;;;;;4973570;28;20100;-59
2024/01/31 12:59:14;;;;;;;;;;;;;;;;;;4971476;28;20025;-59
2024/01/31 13:01:39;;;;;;;;;;;;;;;;;;4973560;28;20429;-59
2024/01/31 13:04:05;;;;;;;;;;;;;;;;;;4972264;28;20566;-59
2024/01/31 13:06:30;;;;;;;;;;;;;;;;;;4978027;28;19968;-59
2024/01/31 13:08:56;;;;;;;;;;;;;;;;;;5060066;28;19928;-58
2024/01/31 13:11:22;;;;;;;;;;;;;;;;;;5058625;28;19948;-58
2024/01/31 13:13:50;;;;;;;;;;;;;;;;;;5059680;28;19924;-58
2024/01/31 13:16:15;;;;;;;;;;;;;;;;;;5051719;28;19933;-58
2024/01/31 13:18:41;;;;;;;;;;;;;;;;;;5060316;28;19931;-58
2024/01/31 13:21:06;;;;;;;;;;;;;;;;;;5056751;28;20015;-56
2024/01/31 13:23:33;;;;;;;;;;;;;;;;;;5054587;28;20388;-58
2024/01/31 13:25:58;;;;;;;;;;;;;;;;;;5055936;28;19929;-58
2024/01/31 13:28:24;;;;;;;;;;;;;;;;;;5058270;28;19986;-59
2024/01/31 13:30:49;;;;;;;;;;;;;;;;;;5060322;28;19974;-58
2024/01/31 13:33:15;;;;;;;;;;;;;;;;;;5055179;28;20428;-59
2024/01/31 13:35:40;;;;;;;;;;;;;;;;;;5055488;28;19931;-59
2024/01/31 13:38:06;;;;;;;;;;;;;;;;;;5058174;28;20402;-59
2024/01/31 13:40:31;;;;;;;;;;;;;;;;;;5061645;28;19935;-59
2024/01/31 13:42:57;;;;;;;;;;;;;;;;;;5058873;28;20647;-59
2024/01/31 13:45:22;;;;;;;;;;;;;;;;;;5059527;28;20030;-59
2024/01/31 13:47:48;;;;;;;;;;;;;;;;;;5056120;28;19963;-59
2024/01/31 13:50:13;;;;;;;;;;;;;;;;;;5058273;28;19928;-59
2024/01/31 13:52:39;;;;;;;;;;;;;;;;;;5057443;28;19964;-58
2024/01/31 13:55:04;;;;;;;;;;;;;;;;;;5056316;28;19973;-60
2024/01/31 13:57:30;;;;;;;;;;;;;;;;;;5056054;28;19924;-58
2024/01/31 13:59:56;;;;;;;;;;;;;;;;;;5060515;28;19928;-57
2024/01/31 14:02:22;;;;;;;;;;;;;;;;;;5058928;28;19932;-59
2024/01/31 14:04:47;;;;;;;;;;;;;;;;;;5058534;28;20024;-58
2024/01/31 14:07:13;;;;;;;;;;;;;;;;;;5060442;28;20523;-58
2024/01/31 14:09:38;;;;;;;;;;;;;;;;;;5055896;28;20031;-59
2024/01/31 14:12:05;;;;;;;;;;;;;;;;;;5051543;28;19932;-57
2024/01/31 14:14:31;;;;;;;;;;;;;;;;;;5050542;28;19983;-58
2024/01/31 14:16:58;;;;;;;;;;;;;;;;;;5047544;28;19928;-58
2024/01/31 14:19:23;;;;;;;;;;;;;;;;;;5051111;28;19967;-60
2024/01/31 14:21:49;;;;;;;;;;;;;;;;;;5047107;28;19924;-57
2024/01/31 14:24:15;;;;;;;;;;;;;;;;;;5050369;28;19954;-58
2024/01/31 14:26:43;;;;;;;;;;;;;;;;;;5052594;28;19933;-59
2024/01/31 14:29:09;;;;;;;;;;;;;;;;;;5046680;28;20027;-57
2024/01/31 14:31:34;;;;;;;;;;;;;;;;;;5049714;28;19928;-57
2024/01/31 14:34:00;;;;;;;;;;;;;;;;;;5050967;28;20599;-58
2024/01/31 14:36:25;;;;;;;;;;;;;;;;;;5060842;28;20261;-59
2024/01/31 14:38:51;;;;;;;;;;;;;;;;;;5051416;28;20031;-59
2024/01/31 14:41:16;;;;;;;;;;;;;;;;;;5049313;28;20576;-58
2024/01/31 14:43:42;;;;;;;;;;;;;;;;;;5053159;28;19932;-58
2024/01/31 14:46:07;;;;;;;;;;;;;;;;;;5048265;28;19968;-58
2024/01/31 14:48:33;;;;;;;;;;;;;;;;;;5047335;28;20011;-59
2024/01/31 14:50:58;;;;;;;;;;;;;;;;;;5048862;28;20196;-58
2024/01/31 14:53:24;;;;;;;;;;;;;;;;;;5047301;28;19925;-60
2024/01/31 14:55:49;;;;;;;;;;;;;;;;;;5044591;28;20737;-58
2024/01/31 14:58:15;;;;;;;;;;;;;;;;;;5045685;28;19925;-59
2024/01/31 15:00:40;;;;;;;;;;;;;;;;;;5048021;28;20036;-58
2024/01/31 15:03:06;;;;;;;;;;;;;;;;;;5045082;28;19932;-59
2024/01/31 15:05:32;;;;;;;;;;;;;;;;;;5046321;28;20023;-58
2024/01/31 15:07:57;;;;;;;;;;;;;;;;;;5048738;28;20373;-58
2024/01/31 15:10:23;;;;;;;;;;;;;;;;;;5047917;28;19932;-59
2024/01/31 15:12:51;;;;;;;;;;;;;;;;;;5045427;28;19925;-58
2024/01/31 15:15:17;;;;;;;;;;;;;;;;;;5046277;28;19924;-58
2024/01/31 15:17:42;;;;;;;;;;;;;;;;;;5046904;28;20023;-59
2024/01/31 15:20:08;;;;;;;;;;;;;;;;;;5049997;28;19979;-59
2024/01/31 15:22:35;;;;;;;;;;;;;;;;;;5049783;28;19936;-59
2024/01/31 15:25:00;;;;;;;;;;;;;;;;;;5051981;28;19924;-58
2024/01/31 15:27:26;;;;;;;;;;;;;;;;;;5051708;28;19933;-58
2024/01/31 15:29:51;;;;;;;;;;;;;;;;;;5053772;28;19967;-58
2024/01/31 15:32:16;;;;;;;;;;;;;;;;;;5051901;28;20243;-58
2024/01/31 15:34:42;;;;;;;;;;;;;;;;;;5054783;28;19939;-59
2024/01/31 15:37:07;;;;;;;;;;;;;;;;;;5049722;28;19994;-58
2024/01/31 15:39:33;;;;;;;;;;;;;;;;;;5049024;28;19925;-57
2024/01/31 15:41:58;;;;;;;;;;;;;;;;;;5055270;28;20023;-58
2024/01/31 15:44:25;;;;;;;;;;;;;;;;;;5050131;28;21647;-58
2024/01/31 15:46:50;;;;;;;;;;;;;;;;;;5051301;28;20368;-58
2024/01/31 15:49:16;;;;;;;;;;;;;;;;;;5057464;28;19971;-57
2024/01/31 15:51:41;;;;;;;;;;;;;;;;;;5053080;28;19940;-58
2024/01/31 15:54:07;;;;;;;;;;;;;;;;;;5049265;28;20015;-56
2024/01/31 15:56:32;;;;;;;;;;;;;;;;;;5052367;28;19925;-57
2024/01/31 15:58:58;;;;;;;;;;;;;;;;;;5058446;28;19975;-57
2024/01/31 16:01:23;;;;;;;;;;;;;;;;;;5051949;28;20007;-57
2024/01/31 16:03:48;;;;;;;;;;;;;;;;;;5052989;28;19960;-57
2024/01/31 16:06:14;;;;;;;;;;;;;;;;;;5051344;28;20319;-57
2024/01/31 16:08:39;;;;;;;;;;;;;;;;;;5050610;28;20344;-58
2024/01/31 16:11:05;;;;;;;;;;;;;;;;;;5046913;28;20027;-57
2024/01/31 16:13:31;;;;;;;;;;;;;;;;;;5048103;28;19925;-58
2024/01/31 16:15:56;;;;;;;;;;;;;;;;;;5050347;28;19956;-57
2024/01/31 16:18:22;;;;;;;;;;;;;;;;;;5052525;28;20538;-58
2024/01/31 16:20:48;;;;;;;;;;;;;;;;;;5048564;28;19925;-58
2024/01/31 16:23:14;;;;;;;;;;;;;;;;;;5049342;28;20023;-58
2024/01/31 16:25:39;;;;;;;;;;;;;;;;;;5047508;28;19925;-58
2024/01/31 16:28:05;;;;;;;;;;;;;;;;;;5051133;28;19964;-57
2024/01/31 16:30:30;;;;;;;;;;;;;;;;;;5051246;28;19982;-59
2024/01/31 16:32:56;;;;;;;;;;;;;;;;;;5048787;28;19978;-57
2024/01/31 16:35:22;;;;;;;;;;;;;;;;;;5048519;28;19984;-58
2024/01/31 16:37:48;;;;;;;;;;;;;;;;;;5048091;28;20027;-58
2024/01/31 16:40:13;;;;;;;;;;;;;;;;;;5053411;28;19967;-58